tititudorancea.com
Station Historical Data
 
Daily Summary for July 25, 2017 Units:  Metric    English   Both
« Previous Day
Next Day »
Daily Weekly Monthly Yearly Custom
  Current: High: Low: Average:
Temperature: 5.9 °C 8.1 °C 5.5 °C 6.7 °C
Dew Point: 5.7 °C 7.9 °C 5.3 °C 6.6 °C
Humidity: 99 % 99 % 99 % 99 %
Wind Speed: 0 km/h 0 km/h 0 km/h 0 km/h
Wind Gust: 0 km/h 1.1 km/h - -
Wind:Calm - - North
Pressure: 1022.2 hPa 1024.9 hPa 1022.2 hPa -
Precipitation: 0.25 mm      
Historical Graphs
 
 
Ararat weather Find more about Weather in Ararat, AU


 



 


Tabular Data for July 25, 2017
Time Temperature Dew Point Pressure Wind Wind Speed Wind Gust Humidity Rainfall Rate (Hourly)
00:02 8.1 °C 7.9 °C 1024.9 hPa Calm     99 % 0 mm
00:07 7.9 °C 7.8 °C 1024.9 hPa Calm     99 % 0 mm
00:12 7.8 °C 7.7 °C 1024.9 hPa Calm     99 % 0 mm
00:17 7.8 °C 7.7 °C 1024.6 hPa Calm     99 % 0 mm
00:22 7.8 °C 7.7 °C 1024.6 hPa Calm     99 % 0 mm
00:27 7.7 °C 7.6 °C 1024.6 hPa Calm     99 % 0 mm
00:32 7.7 °C 7.6 °C 1024.3 hPa Calm     99 % 0 mm
00:37 7.8 °C 7.7 °C 1024.3 hPa Calm     99 % 0 mm
00:42 7.7 °C 7.6 °C 1024.3 hPa Calm     99 % 0 mm
00:47 7.7 °C 7.6 °C 1024.3 hPa Calm     99 % 0 mm
00:52 7.7 °C 7.5 °C 1024.6 hPa Calm     99 % 0 mm
00:57 7.7 °C 7.5 °C 1024.3 hPa Calm     99 % 0 mm
01:02 7.6 °C 7.4 °C 1024.6 hPa Calm     99 % 0 mm
01:07 7.6 °C 7.4 °C 1024.3 hPa Calm     99 % 0 mm
01:12 7.6 °C 7.4 °C 1024.6 hPa Calm     99 % 0 mm
01:17 7.6 °C 7.4 °C 1024.6 hPa Calm     99 % 0 mm
01:22 7.6 °C 7.4 °C 1024.3 hPa Calm     99 % 0 mm
01:27 7.4 °C 7.3 °C 1024.6 hPa Calm     99 % 0 mm
01:32 7.4 °C 7.3 °C 1024.3 hPa Calm     99 % 0 mm
01:37 7.4 °C 7.3 °C 1024.3 hPa Calm     99 % 0 mm
01:42 7.4 °C 7.3 °C 1024.3 hPa Calm     99 % 0 mm
01:47 7.4 °C 7.3 °C 1024.3 hPa Calm     99 % 0 mm
01:52 7.4 °C 7.3 °C 1024.3 hPa Calm     99 % 0 mm
01:57 7.4 °C 7.3 °C 1024.3 hPa Calm     99 % 0 mm
02:02 7.4 °C 7.3 °C 1024.3 hPa Calm     99 % 0 mm
02:07 7.3 °C 7.2 °C 1024.3 hPa Calm     99 % 0 mm
02:12 7.3 °C 7.2 °C 1023.9 hPa Calm   1.1 km/h 99 % 0 mm
02:17 7.4 °C 7.3 °C 1023.9 hPa Calm   1.1 km/h 99 % 0 mm
02:22 7.4 °C 7.3 °C 1023.6 hPa Calm     99 % 0 mm
02:27 7.4 °C 7.3 °C 1023.6 hPa Calm     99 % 0 mm
02:32 7.4 °C 7.3 °C 1023.6 hPa Calm     99 % 0 mm
02:37 7.4 °C 7.3 °C 1023.6 hPa Calm     99 % 0 mm
02:42 7.4 °C 7.3 °C 1023.6 hPa Calm   1.1 km/h 99 % 0 mm
02:47 7.3 °C 7.2 °C 1023.2 hPa Calm   1.1 km/h 99 % 0 mm
02:52 7.3 °C 7.2 °C 1023.2 hPa Calm     99 % 0 mm
02:57 7.3 °C 7.1 °C 1023.6 hPa Calm     99 % 0 mm
03:02 7.3 °C 7.1 °C 1023.6 hPa Calm     99 % 0 mm
03:07 7.3 °C 7.1 °C 1023.6 hPa Calm     99 % 0 mm
03:12 7.2 °C 7 °C 1023.6 hPa Calm     99 % 0 mm
03:16 7.2 °C 7 °C 1023.6 hPa Calm     99 % 0 mm
03:21 6.9 °C 6.8 °C 1023.6 hPa Calm     99 % 0 mm
03:26 6.8 °C 6.7 °C 1023.2 hPa Calm     99 % 0 mm
03:31 6.8 °C 6.6 °C 1023.6 hPa Calm     99 % 0 mm
03:36 6.7 °C 6.5 °C 1023.2 hPa Calm     99 % 0 mm
03:41 6.6 °C 6.4 °C 1023.2 hPa Calm     99 % 0 mm
03:46 6.6 °C 6.4 °C 1023.2 hPa Calm     99 % 0 mm
03:52 6.4 °C 6.3 °C 1023.2 hPa Calm     99 % 0 mm
03:56 6.4 °C 6.3 °C 1022.9 hPa Calm     99 % 0 mm
04:01 6.4 °C 6.3 °C 1023.2 hPa Calm     99 % 0 mm
04:06 6.4 °C 6.2 °C 1023.2 hPa Calm     99 % 0 mm
04:11 6.4 °C 6.2 °C 1023.2 hPa Calm     99 % 0 mm
04:16 6.4 °C 6.2 °C 1023.2 hPa Calm     99 % 0 mm
04:21 6.4 °C 6.2 °C 1023.2 hPa Calm     99 % 0 mm
04:26 6.3 °C 6.1 °C 1023.2 hPa Calm     99 % 0 mm
04:31 6.3 °C 6.1 °C 1023.2 hPa Calm     99 % 0 mm
04:36 6.2 °C 6.1 °C 1023.2 hPa Calm     99 % 0 mm
04:41 6.1 °C 5.9 °C 1022.9 hPa Calm     99 % 0 mm
04:46 6 °C 5.8 °C 1023.2 hPa Calm     99 % 0 mm
04:51 5.9 °C 5.7 °C 1023.2 hPa Calm     99 % 0 mm
04:56 5.8 °C 5.6 °C 1023.2 hPa Calm     99 % 0 mm
05:01 5.7 °C 5.6 °C 1022.9 hPa Calm     99 % 0 mm
05:06 5.6 °C 5.4 °C 1022.9 hPa Calm     99 % 0 mm
05:11 5.5 °C 5.3 °C 1023.2 hPa Calm     99 % 0 mm
05:16 5.5 °C 5.3 °C 1022.9 hPa Calm     99 % 0.25 mm
05:21 5.5 °C 5.3 °C 1022.9 hPa Calm     99 % 0.25 mm
05:26 5.5 °C 5.3 °C 1022.6 hPa Calm     99 % 0.25 mm
05:31 5.5 °C 5.3 °C 1022.9 hPa Calm     99 % 0.25 mm
05:36 5.5 °C 5.3 °C 1022.9 hPa Calm     99 % 0.25 mm
05:41 5.6 °C 5.4 °C 1022.6 hPa Calm     99 % 0.25 mm
05:46 5.6 °C 5.4 °C 1022.6 hPa Calm     99 % 0.25 mm
05:51 5.6 °C 5.4 °C 1022.6 hPa Calm     99 % 0.25 mm
05:56 5.6 °C 5.4 °C 1022.2 hPa Calm     99 % 0.25 mm
06:01 5.6 °C 5.4 °C 1022.2 hPa Calm     99 % 0.25 mm
06:06 5.6 °C 5.4 °C 1022.6 hPa Calm     99 % 0.25 mm
06:11 5.6 °C 5.4 °C 1022.6 hPa Calm     99 % 0.25 mm
06:16 5.6 °C 5.4 °C 1022.6 hPa Calm     99 % 0 mm
06:21 5.6 °C 5.4 °C 1022.6 hPa Calm     99 % 0 mm
06:26 5.5 °C 5.3 °C 1022.2 hPa Calm     99 % 0 mm
06:31 5.7 °C 5.6 °C 1022.2 hPa Calm     99 % 0 mm
06:36 5.9 °C 5.7 °C 1022.2 hPa Calm     99 % 0 mm
06:37 5.9 °C 5.7 °C 1022.2 hPa Calm     99 % 0 mm
Ararat Weather
Compliments of Weather Underground - 768 kb
Click here to send mail.


ABOUT

Live weather data from Ararat, Victoria, Australia, 3377
Data uploaded from Cumulus every 5 minutes to Weather Underground.
This site then downloads the raw data for formatting and display.
Metric and imperial data can be displayed. Graphs and historical data available.
Includes Sun and Moon times and rain image live from BOM.

Check out Ararat Weather on Facebook, Twitter and Google +

Help support ongoing costs by checking out the ads





Follow @AraratWeather